Time;durP1;ratioP1;P1;durP2;ratioP2;P2;SDS_P1;SDS_P2;PMS_P1;PMS_P2;Temp;Humidity;BMP_temperature;BMP_pressure;BME280_temperature;BME280_humidity;BME280_pressure;Samples;Min_cycle;Max_cycle;Signal;HPM_P1;HPM_P2
2023/04/22 00:01:46;;;;;;;55.80;32.50;;;;;;;8.47;100.00;100905.09;5036243;28;20095;-57
2023/04/22 00:04:12;;;;;;;58.75;32.08;;;;;;;8.40;100.00;100904.34;5024635;28;20103;-58
2023/04/22 00:06:37;;;;;;;61.88;33.47;;;;;;;8.43;100.00;100904.28;5008644;28;20107;-59
2023/04/22 00:09:02;;;;;;;59.63;33.78;;;;;;;8.40;100.00;100908.75;5007351;28;20040;-59
2023/04/22 00:11:28;;;;;;;59.78;33.20;;;;;;;8.32;100.00;100907.19;5007997;28;20109;-62
2023/04/22 00:13:53;;;;;;;63.47;34.75;;;;;;;8.30;100.00;100908.09;5008342;28;20108;-60
2023/04/22 00:16:18;;;;;;;57.60;33.60;;;;;;;8.29;100.00;100907.25;5024367;28;20360;-59
2023/04/22 00:18:44;;;;;;;62.60;36.03;;;;;;;8.25;100.00;100913.44;5027224;28;20033;-57
2023/04/22 00:21:09;;;;;;;60.28;34.40;;;;;;;8.24;100.00;100911.72;5011507;28;20038;-56
2023/04/22 00:23:34;;;;;;;64.88;34.10;;;;;;;8.23;100.00;100910.00;5008415;28;20029;-58
2023/04/22 00:26:00;;;;;;;63.95;36.55;;;;;;;8.23;100.00;100917.88;5008062;28;20026;-58
2023/04/22 00:28:26;;;;;;;70.55;37.72;;;;;;;8.24;100.00;100911.72;5007931;28;20030;-58
2023/04/22 00:30:51;;;;;;;70.65;38.55;;;;;;;8.26;100.00;100912.56;5006497;28;20041;-58
2023/04/22 00:33:16;;;;;;;68.57;38.08;;;;;;;8.25;100.00;100910.81;5007157;28;20030;-58
2023/04/22 00:35:42;;;;;;;70.40;38.58;;;;;;;8.22;100.00;100908.28;5024806;28;20038;-58
2023/04/22 00:38:07;;;;;;;72.15;38.60;;;;;;;8.18;100.00;100906.63;5026493;28;20048;-58
2023/04/22 00:40:32;;;;;;;71.32;37.40;;;;;;;8.23;100.00;100902.13;5021613;28;20054;-55
2023/04/22 00:42:58;;;;;;;64.18;36.70;;;;;;;8.19;100.00;100905.75;5008375;28;20061;-59
2023/04/22 00:45:25;;;;;;;68.15;37.13;;;;;;;8.14;100.00;100899.72;5014869;28;20112;-58
2023/04/22 00:47:51;;;;;;;68.40;36.35;;;;;;;8.07;100.00;100905.09;5027332;28;20029;-55
2023/04/22 00:50:16;;;;;;;73.47;38.08;;;;;;;8.12;100.00;100906.78;5026873;28;20044;-57
2023/04/22 00:52:42;;;;;;;76.32;38.88;;;;;;;8.03;100.00;100911.31;5025347;28;20108;-60
2023/04/22 00:55:07;;;;;;;63.92;36.58;;;;;;;7.97;100.00;100914.06;5024597;28;20507;-60
2023/04/22 00:57:34;;;;;;;74.47;38.58;;;;;;;7.95;100.00;100913.25;5026451;28;20741;-57
2023/04/22 00:59:59;;;;;;;66.57;36.40;;;;;;;7.90;100.00;100926.47;5024358;28;20029;-58
2023/04/22 01:02:25;;;;;;;72.45;38.55;;;;;;;7.84;100.00;100926.59;5006402;28;20030;-60
2023/04/22 01:04:53;;;;;;;70.90;38.33;;;;;;;7.82;100.00;100931.88;5007039;28;20046;-59
2023/04/22 01:07:18;;;;;;;83.70;41.42;;;;;;;7.82;100.00;100925.75;5041653;28;20171;-57
2023/04/22 01:12:12;;;;;;;74.55;37.90;;;;;;;7.84;100.00;100922.22;5007218;28;20046;-57
2023/04/22 01:14:37;;;;;;;67.32;35.92;;;;;;;7.82;100.00;100918.75;5008797;28;20479;-59
2023/04/22 01:17:03;;;;;;;69.72;35.65;;;;;;;7.79;100.00;100921.44;5006073;28;20028;-57
2023/04/22 01:19:28;;;;;;;68.22;36.03;;;;;;;7.74;100.00;100910.19;5006882;28;20466;-60
2023/04/22 01:21:54;;;;;;;71.43;36.78;;;;;;;7.70;100.00;100908.50;5016475;28;20042;-56
2023/04/22 01:24:20;;;;;;;69.10;36.13;;;;;;;7.66;100.00;100907.72;5025810;28;20422;-60
2023/04/22 01:26:46;;;;;;;72.35;37.05;;;;;;;7.57;100.00;100914.03;5025580;28;20064;-57
2023/04/22 01:29:12;;;;;;;72.97;37.63;;;;;;;7.51;100.00;100914.16;5026543;28;20052;-59
2023/04/22 01:31:38;;;;;;;78.68;38.85;;;;;;;7.50;100.00;100914.19;5016368;28;20137;-57
2023/04/22 01:34:03;;;;;;;68.30;36.67;;;;;;;7.46;100.00;100916.84;5004545;28;20527;-59
2023/04/22 01:36:28;;;;;;;75.15;37.55;;;;;;;7.45;100.00;100909.03;5005572;28;20026;-56
2023/04/22 01:38:54;;;;;;;75.35;37.33;;;;;;;7.42;100.00;100911.69;5007172;28;20419;-59
2023/04/22 01:41:20;;;;;;;74.80;37.20;;;;;;;7.40;100.00;100910.84;5010549;28;20968;-59
2023/04/22 01:43:45;;;;;;;71.40;36.88;;;;;;;7.42;100.00;100912.56;5026707;28;20087;-58
2023/04/22 01:46:10;;;;;;;78.43;38.35;;;;;;;7.46;100.00;100913.34;5021541;28;20033;-57
2023/04/22 01:48:37;;;;;;;78.68;38.53;;;;;;;7.49;100.00;100913.31;5026663;28;20426;-58
2023/04/22 01:51:02;;;;;;;84.85;39.55;;;;;;;7.51;100.00;100913.28;5025392;28;20390;-59
2023/04/22 01:53:28;;;;;;;77.93;40.78;;;;;;;7.52;100.00;100909.75;5026959;28;20112;-57
2023/04/22 01:55:53;;;;;;;82.18;40.65;;;;;;;7.45;100.00;100914.25;5025880;28;20033;-59
2023/04/22 01:58:18;;;;;;;77.10;40.13;;;;;;;7.38;100.00;100912.66;5025625;28;20132;-59
2023/04/22 02:00:44;;;;;;;75.35;39.08;;;;;;;7.34;100.00;100922.31;5026141;28;20021;-58
2023/04/22 02:03:09;;;;;;;80.70;40.05;;;;;;;7.43;100.00;100918.66;5011914;28;20037;-56
2023/04/22 02:05:36;;;;;;;79.30;41.03;;;;;;;7.47;100.00;100907.25;5007068;28;20025;-57
2023/04/22 02:08:01;;;;;;;85.00;38.72;;;;;;;7.42;100.00;100914.31;5013541;28;20489;-59
2023/04/22 02:10:27;;;;;;;76.63;38.03;;;;;;;7.35;100.00;100913.59;5031761;28;20045;-56
2023/04/22 02:12:52;;;;;;;78.03;38.88;;;;;;;7.31;100.00;100915.41;5023831;28;20032;-61
2023/04/22 02:15:17;;;;;;;73.43;36.08;;;;;;;7.28;100.00;100911.94;5046432;28;20430;-55
2023/04/22 02:17:43;;;;;;;85.63;41.63;;;;;;;7.31;100.00;100918.00;5044213;28;20041;-60
2023/04/22 02:20:11;;;;;;;74.13;38.97;;;;;;;7.28;100.00;100923.31;5045789;28;20704;-58
2023/04/22 02:22:37;;;;;;;83.82;40.45;;;;;;;7.30;100.00;100921.53;5044564;28;20382;-55
2023/04/22 02:25:03;;;;;;;90.03;42.10;;;;;;;7.33;100.00;100913.63;5015500;28;20033;-55
2023/04/22 02:27:29;;;;;;;88.10;39.83;;;;;;;7.37;100.00;100917.03;5025690;28;20098;-56
2023/04/22 02:29:54;;;;;;;81.18;38.95;;;;;;;7.42;100.00;100914.31;5025196;28;20737;-56
2023/04/22 02:32:19;;;;;;;80.70;38.40;;;;;;;7.43;100.00;100908.19;5029162;28;20039;-55
2023/04/22 02:34:46;;;;;;;76.80;39.45;;;;;;;7.38;100.00;100912.66;5045180;28;20037;-58
2023/04/22 02:37:11;;;;;;;76.57;38.38;;;;;;;7.36;100.00;100917.06;5044420;28;20655;-60
2023/04/22 02:39:36;;;;;;;86.97;41.13;;;;;;;7.34;100.00;100906.59;5044659;28;20040;-59
2023/04/22 02:42:02;;;;;;;93.78;44.45;;;;;;;7.31;100.00;100899.66;5044911;28;20025;-60
2023/04/22 02:44:27;;;;;;;87.35;39.42;;;;;;;7.32;100.00;100892.69;5014233;28;20091;-57
2023/04/22 02:46:52;;;;;;;88.63;40.58;;;;;;;7.35;100.00;100887.38;5025081;28;20030;-60
2023/04/22 02:49:18;;;;;;;88.00;39.67;;;;;;;7.32;100.00;100893.53;5024935;28;20034;-56
2023/04/22 02:51:43;;;;;;;80.68;39.58;;;;;;;7.32;100.00;100888.28;5025844;28;20064;-56
2023/04/22 02:54:08;;;;;;;82.38;38.25;;;;;;;7.32;100.00;100887.44;5025041;28;20033;-59
2023/04/22 02:56:35;;;;;;;77.10;36.72;;;;;;;7.30;100.00;100882.22;5029524;28;20030;-57
2023/04/22 02:59:00;;;;;;;79.68;39.00;;;;;;;7.24;100.00;100874.47;5034901;28;20032;-63
2023/04/22 03:01:25;;;;;;;84.15;38.53;;;;;;;7.18;100.00;100874.59;5049458;28;20024;-56
2023/04/22 03:03:51;;;;;;;89.97;39.65;;;;;;;7.12;100.00;100872.06;5047941;28;20033;-57
2023/04/22 03:06:16;;;;;;;86.07;40.78;;;;;;;7.14;100.00;100862.44;5049237;28;20021;-58
2023/04/22 03:08:42;;;;;;;90.00;38.17;;;;;;;7.15;100.00;100865.03;5047774;28;20033;-59
2023/04/22 03:11:07;;;;;;;89.90;41.03;;;;;;;7.18;100.00;100864.09;5049049;28;20045;-60
2023/04/22 03:13:32;;;;;;;91.07;41.30;;;;;;;7.24;100.00;100871.84;5030851;28;20060;-58
2023/04/22 03:15:58;;;;;;;95.45;42.28;;;;;;;7.25;100.00;100865.72;5030134;28;20482;-57
2023/04/22 03:18:23;;;;;;;90.40;40.05;;;;;;;7.24;100.00;100856.13;5028080;28;20471;-55
2023/04/22 03:20:48;;;;;;;82.60;38.78;;;;;;;7.27;100.00;100858.69;5044596;28;20455;-59
2023/04/22 03:23:14;;;;;;;87.22;41.70;;;;;;;7.31;100.00;100864.72;5048359;28;20021;-59
2023/04/22 03:25:40;;;;;;;90.95;42.08;;;;;;;7.32;100.00;100863.84;5048572;28;20412;-59
2023/04/22 03:28:05;;;;;;;92.40;39.55;;;;;;;7.40;100.00;100861.03;5048287;28;20035;-56
2023/04/22 03:30:30;;;;;;;91.07;40.30;;;;;;;7.41;100.00;100847.06;5048480;28;20055;-58
2023/04/22 03:32:56;;;;;;;81.78;37.83;;;;;;;7.42;100.00;100846.16;5048930;28;20159;-57
2023/04/22 03:35:22;;;;;;;89.50;39.45;;;;;;;7.42;100.00;100848.78;5048208;28;20047;-56
2023/04/22 03:37:47;;;;;;;96.07;41.05;;;;;;;7.45;100.00;100841.72;5049399;28;20070;-56
2023/04/22 03:40:12;;;;;;;84.60;39.30;;;;;;;7.48;100.00;100838.16;5048105;28;20116;-56
2023/04/22 03:42:38;;;;;;;85.28;39.97;;;;;;;7.54;100.00;100838.03;5048988;28;20064;-59
2023/04/22 03:45:03;;;;;;;96.72;41.75;;;;;;;7.53;100.00;100838.91;5048179;28;20090;-56
2023/04/22 03:47:29;;;;;;;94.32;40.90;;;;;;;7.55;100.00;100836.25;5048267;28;20033;-55
2023/04/22 03:49:54;;;;;;;88.97;40.53;;;;;;;7.58;100.00;100836.22;5047851;28;20124;-55
2023/04/22 03:52:19;;;;;;;89.03;40.75;;;;;;;7.53;100.00;100836.28;5048028;28;20025;-57
2023/04/22 03:54:45;;;;;;;95.57;41.72;;;;;;;7.52;100.00;100831.09;5047708;28;20039;-61
2023/04/22 03:57:10;;;;;;;89.40;39.53;;;;;;;7.50;100.00;100827.66;5047827;28;20083;-59
2023/04/22 03:59:35;;;;;;;83.03;38.92;;;;;;;7.53;100.00;100817.94;5044243;28;20535;-59
2023/04/22 04:02:01;;;;;;;89.45;41.33;;;;;;;7.56;100.00;100820.50;5027527;28;20467;-59
2023/04/22 04:04:28;;;;;;;87.07;39.30;;;;;;;7.56;100.00;100812.63;5027347;28;20428;-61
2023/04/22 04:06:54;;;;;;;88.53;38.88;;;;;;;7.59;100.00;100807.31;5031022;28;20108;-56
2023/04/22 04:09:19;;;;;;;87.47;39.25;;;;;;;7.58;100.00;100805.59;5030379;28;20119;-56
2023/04/22 04:11:44;;;;;;;87.18;40.15;;;;;;;7.63;100.00;100808.13;5047355;28;20144;-56
2023/04/22 04:14:10;;;;;;;82.25;40.20;;;;;;;7.62;100.00;100800.31;5037256;28;20025;-57
2023/04/22 04:16:35;;;;;;;91.70;40.53;;;;;;;7.64;100.00;100811.59;5028207;28;20087;-59
2023/04/22 04:19:01;;;;;;;87.45;41.40;;;;;;;7.66;100.00;100807.19;5038568;28;20101;-58
2023/04/22 04:21:28;;;;;;;88.18;38.92;;;;;;;7.67;100.00;100804.53;5047489;28;20568;-58
2023/04/22 04:23:53;;;;;;;85.75;39.95;;;;;;;7.67;100.00;100806.28;5047598;28;20051;-57
2023/04/22 04:26:19;;;;;;;83.30;39.90;;;;;;;7.67;100.00;100798.41;5044063;28;20021;-56
2023/04/22 04:28:44;;;;;;;89.68;39.47;;;;;;;7.65;100.00;100802.84;5027667;28;20057;-58
2023/04/22 04:31:10;;;;;;;83.38;37.60;;;;;;;7.65;100.00;100795.00;5032039;28;20021;-59
2023/04/22 04:33:35;;;;;;;83.35;39.05;;;;;;;7.67;100.00;100798.41;5046907;28;20478;-58
2023/04/22 04:36:01;;;;;;;79.72;37.80;;;;;;;7.66;100.00;100797.56;5033938;28;20104;-56
2023/04/22 04:38:27;;;;;;;83.55;38.83;;;;;;;7.66;100.00;100791.47;5047108;28;20056;-59
2023/04/22 04:40:53;;;;;;;80.90;38.55;;;;;;;7.71;100.00;100784.38;5047013;28;20021;-56
2023/04/22 04:43:19;;;;;;;82.55;38.97;;;;;;;7.70;100.00;100787.88;5046931;28;20029;-55
2023/04/22 04:45:47;;;;;;;86.43;40.53;;;;;;;7.80;100.00;100791.16;5041134;28;20017;-57
2023/04/22 04:48:13;;;;;;;89.55;43.03;;;;;;;7.75;100.00;100793.00;5026470;28;20456;-59
2023/04/22 04:50:41;;;;;;;84.50;38.58;;;;;;;7.75;100.00;100788.63;5024735;28;20033;-56
2023/04/22 04:53:06;;;;;;;85.57;40.10;;;;;;;7.77;100.00;100789.44;5044327;28;20037;-58
2023/04/22 04:55:32;;;;;;;88.55;39.08;;;;;;;7.82;100.00;100792.84;5046826;28;20044;-56
2023/04/22 04:57:57;;;;;;;84.30;40.40;;;;;;;7.87;100.00;100789.25;5031388;28;20033;-56
2023/04/22 05:00:22;;;;;;;81.65;39.80;;;;;;;7.93;100.00;100787.34;5010618;28;20720;-56
2023/04/22 05:02:48;;;;;;;87.80;41.20;;;;;;;7.95;100.00;100782.06;5046022;28;20049;-56
2023/04/22 05:05:13;;;;;;;86.60;40.83;;;;;;;7.98;100.00;100782.00;5025909;28;20037;-56
2023/04/22 05:07:38;;;;;;;82.57;39.97;;;;;;;8.01;100.00;100779.28;5045845;28;20031;-57
2023/04/22 05:10:04;;;;;;;89.38;40.63;;;;;;;8.06;100.00;100769.53;5046362;28;20021;-56
2023/04/22 05:12:30;;;;;;;84.78;39.38;;;;;;;8.07;100.00;100776.50;5029240;28;20029;-55
2023/04/22 05:14:55;;;;;;;84.30;40.67;;;;;;;8.08;100.00;100777.38;5026816;28;20037;-56
2023/04/22 05:17:20;;;;;;;77.88;40.55;;;;;;;8.08;100.00;100786.13;5038879;28;20040;-58
2023/04/22 05:19:45;;;;;;;89.10;40.97;;;;;;;8.13;100.00;100791.22;5046687;28;20052;-56
2023/04/22 05:22:11;;;;;;;85.25;41.30;;;;;;;8.20;100.00;100789.34;5032908;28;20045;-55
2023/04/22 05:24:36;;;;;;;84.70;41.75;;;;;;;8.23;100.00;100786.63;5026479;28;20036;-58
2023/04/22 05:27:02;;;;;;;88.68;41.85;;;;;;;8.30;100.00;100787.31;5034649;28;20033;-55
2023/04/22 05:29:27;;;;;;;82.00;42.00;;;;;;;8.34;100.00;100802.97;5046770;28;20117;-58
2023/04/22 05:31:53;;;;;;;83.15;42.33;;;;;;;8.44;100.00;100808.00;5037449;28;20036;-57
2023/04/22 05:34:18;;;;;;;78.75;40.58;;;;;;;8.49;100.00;100807.88;5008485;28;20018;-53
2023/04/22 05:36:44;;;;;;;83.00;42.78;;;;;;;8.58;100.00;100808.53;5024888;28;20078;-60
2023/04/22 05:39:09;;;;;;;79.70;41.28;;;;;;;8.65;100.00;100818.88;5008775;28;20075;-51
2023/04/22 05:41:34;;;;;;;74.90;41.05;;;;;;;8.70;100.00;100811.75;5036186;28;20037;-58
2023/04/22 05:43:59;;;;;;;77.57;41.35;;;;;;;8.73;100.00;100803.75;5026961;28;20025;-58
2023/04/22 05:46:25;;;;;;;68.80;40.35;;;;;;;8.67;100.00;100801.31;5025857;28;20025;-57
2023/04/22 05:48:50;;;;;;;73.55;40.28;;;;;;;8.75;100.00;100806.34;5026278;28;20029;-56
2023/04/22 05:51:16;;;;;;;77.95;41.15;;;;;;;8.77;100.00;100813.31;5026392;28;20029;-56
2023/04/22 05:53:41;;;;;;;76.50;40.40;;;;;;;8.85;100.00;100806.06;5046515;28;20531;-57
2023/04/22 05:56:07;;;;;;;72.68;39.97;;;;;;;8.92;100.00;100806.78;5045351;28;20402;-58
2023/04/22 05:58:32;;;;;;;76.75;39.47;;;;;;;8.95;100.00;100803.19;5041111;28;20033;-55
2023/04/22 06:00:57;;;;;;;68.03;39.33;;;;;;;9.03;100.00;100795.09;5035144;28;20091;-57
2023/04/22 06:03:23;;;;;;;70.50;40.20;;;;;;;9.08;100.00;100790.56;5039519;28;20065;-58
2023/04/22 06:05:48;;;;;;;67.40;38.97;;;;;;;9.20;100.00;100789.34;5023194;28;20021;-56
2023/04/22 06:08:13;;;;;;;65.78;38.08;;;;;;;9.23;100.00;100792.75;5030553;28;20101;-59
2023/04/22 06:10:39;;;;;;;63.00;38.65;;;;;;;9.25;100.00;100786.59;5024547;28;20064;-56
2023/04/22 06:13:05;;;;;;;65.10;37.90;;;;;;;9.28;100.00;100781.25;5035856;28;20505;-57
2023/04/22 06:15:30;;;;;;;60.53;38.00;;;;;;;9.34;100.00;100781.91;5027073;28;20711;-61
2023/04/22 06:17:55;;;;;;;57.03;36.63;;;;;;;9.44;100.00;100777.25;5015500;28;20037;-58
2023/04/22 06:20:21;;;;;;;57.45;36.72;;;;;;;9.56;100.00;100772.50;5033366;28;20119;-55
2023/04/22 06:22:46;;;;;;;55.42;35.20;;;;;;;9.64;100.00;100767.03;5034278;28;20135;-56
2023/04/22 06:25:11;;;;;;;53.97;34.60;;;;;;;9.64;100.00;100767.03;5018096;28;20064;-57
2023/04/22 06:27:37;;;;;;;54.05;35.30;;;;;;;9.69;100.00;100773.03;5005387;28;20036;-59
2023/04/22 06:30:03;;;;;;;53.85;34.35;;;;;;;9.76;100.00;100773.66;5028242;28;20054;-56
2023/04/22 06:32:29;;;;;;;47.67;32.72;;;;;;;9.80;100.00;100778.78;5012895;28;20605;-57
2023/04/22 06:34:54;;;;;;;49.78;32.70;;;;;;;9.88;100.00;100775.06;5037468;28;20079;-61
2023/04/22 06:37:19;;;;;;;46.92;33.47;;;;;;;10.05;100.00;100780.63;5041025;28;20754;-54
2023/04/22 06:39:45;;;;;;;44.10;31.27;;;;;;;10.03;100.00;100769.31;5029221;28;20041;-55
2023/04/22 06:42:10;;;;;;;41.22;29.90;;;;;;;10.15;100.00;100770.66;5024587;28;20071;-59
2023/04/22 06:44:35;;;;;;;37.97;28.25;;;;;;;10.18;100.00;100761.81;5023704;28;20511;-58
2023/04/22 06:47:01;;;;;;;35.67;27.42;;;;;;;10.18;100.00;100756.53;5023329;28;20025;-60
2023/04/22 06:49:26;;;;;;;44.55;29.63;;;;;;;10.36;100.00;100755.91;5024353;28;20112;-57
2023/04/22 06:51:51;;;;;;;37.33;27.70;;;;;;;10.44;100.00;100760.03;5025366;28;20025;-58
2023/04/22 06:54:17;;;;;;;34.90;26.60;;;;;;;10.64;100.00;100753.25;5033304;28;20538;-61
2023/04/22 06:56:42;;;;;;;33.85;25.63;;;;;;;10.70;100.00;100753.03;5044612;28;20106;-57
2023/04/22 06:59:07;;;;;;;31.55;24.27;;;;;;;10.82;100.00;100757.00;5036872;28;20025;-55
2023/04/22 07:01:33;;;;;;;34.17;24.27;;;;;;;10.91;100.00;100755.78;5026347;28;20025;-57
2023/04/22 07:03:58;;;;;;;31.08;23.73;;;;;;;10.93;100.00;100752.19;5031529;28;20030;-60
2023/04/22 07:06:24;;;;;;;28.83;21.83;;;;;;;11.09;100.00;100747.22;5032420;28;20519;-55
2023/04/22 07:08:49;;;;;;;27.55;20.60;;;;;;;11.11;100.00;100753.28;5030807;28;20383;-55
2023/04/22 07:11:14;;;;;;;26.88;20.83;;;;;;;11.14;100.00;100754.09;5017259;28;20050;-56
2023/04/22 07:13:40;;;;;;;27.02;20.95;;;;;;;11.21;100.00;100755.56;5032917;28;20487;-55
2023/04/22 07:16:05;;;;;;;24.15;20.15;;;;;;;11.16;100.00;100757.50;5035691;28;20488;-59
2023/04/22 07:18:30;;;;;;;26.35;20.92;;;;;;;11.27;100.00;100752.72;5032181;28;20029;-61
2023/04/22 07:20:56;;;;;;;23.67;20.13;;;;;;;11.49;100.00;100751.88;5034694;28;20170;-55
2023/04/22 07:23:21;;;;;;;22.83;18.80;;;;;;;11.49;100.00;100754.50;5029414;28;20037;-54
2023/04/22 07:25:47;;;;;;;25.90;18.65;;;;;;;11.51;100.00;100755.31;5034806;28;20136;-58
2023/04/22 07:28:12;;;;;;;23.15;19.17;;;;;;;11.59;100.00;100758.50;5033907;28;20095;-56
2023/04/22 07:30:37;;;;;;;23.92;18.60;;;;;;;11.61;100.00;100747.88;5031296;28;20183;-55
2023/04/22 07:33:03;;;;;;;23.08;18.58;;;;;;;11.74;100.00;100740.34;5033211;28;20471;-57
2023/04/22 07:35:29;;;;;;;19.48;17.10;;;;;;;11.95;100.00;100751.78;5030646;28;20120;-54
2023/04/22 07:37:55;;;;;;;21.88;17.73;;;;;;;11.94;100.00;100762.41;5035690;28;20486;-56
2023/04/22 07:40:20;;;;;;;21.85;17.30;;;;;;;11.97;100.00;100762.28;5029348;28;20108;-58
2023/04/22 07:42:45;;;;;;;19.58;16.50;;;;;;;12.00;100.00;100767.44;5033048;28;20052;-58
2023/04/22 07:45:11;;;;;;;22.77;18.02;;;;;;;12.08;100.00;100767.16;5026649;28;20070;-56
2023/04/22 07:47:36;;;;;;;21.25;17.27;;;;;;;12.08;100.00;100765.41;5027116;28;20377;-55
2023/04/22 07:50:02;;;;;;;18.48;16.15;;;;;;;12.26;100.00;100762.91;5032151;28;20060;-58
2023/04/22 07:52:28;;;;;;;19.13;15.07;;;;;;;12.35;100.00;100761.66;5033184;28;20034;-58
2023/04/22 07:54:54;;;;;;;16.65;14.45;;;;;;;12.48;100.00;100754.03;5035654;28;20029;-57
2023/04/22 07:57:21;;;;;;;14.60;13.02;;;;;;;12.56;100.00;100757.22;5041951;28;20032;-59
2023/04/22 07:59:46;;;;;;;18.42;13.63;;;;;;;12.49;100.00;100753.97;5009005;28;20014;-57
2023/04/22 08:02:12;;;;;;;14.25;12.43;;;;;;;12.59;100.00;100749.16;5033405;28;20032;-58
2023/04/22 08:04:37;;;;;;;15.32;12.55;;;;;;;12.61;100.00;100742.00;5047913;28;20674;-58
2023/04/22 08:07:02;;;;;;;18.48;13.38;;;;;;;12.71;100.00;100746.91;5029688;28;20673;-59
2023/04/22 08:09:28;;;;;;;14.85;12.32;;;;;;;12.78;100.00;100732.47;5048846;28;20021;-55
2023/04/22 08:11:53;;;;;;;15.63;11.55;;;;;;;12.94;100.00;100721.22;5046919;28;20041;-60
2023/04/22 08:14:19;;;;;;;13.27;11.23;;;;;;;13.29;100.00;100715.19;5037180;28;20029;-58
2023/04/22 08:16:44;;;;;;;14.10;10.95;;;;;;;13.49;100.00;100711.59;5024666;28;20107;-58
2023/04/22 08:19:10;;;;;;;12.57;10.25;;;;;;;13.36;100.00;100716.59;5040418;28;20041;-56
2023/04/22 08:21:36;;;;;;;11.18;9.98;;;;;;;13.75;100.00;100725.38;5036620;28;20059;-59
2023/04/22 08:24:01;;;;;;;14.35;10.32;;;;;;;14.03;100.00;100727.50;5036403;28;20017;-57
2023/04/22 08:26:27;;;;;;;12.20;10.38;;;;;;;14.18;100.00;100727.66;5037550;28;20087;-55
2023/04/22 08:28:52;;;;;;;13.18;10.45;;;;;;;14.30;100.00;100728.00;5037739;28;20405;-60
2023/04/22 08:31:17;;;;;;;21.23;9.90;;;;;;;14.34;100.00;100732.19;5033472;28;20506;-61
2023/04/22 08:33:43;;;;;;;10.18;9.05;;;;;;;14.52;100.00;100727.72;5020023;28;20013;-54
2023/04/22 08:36:09;;;;;;;10.15;8.68;;;;;;;14.96;100.00;100728.97;5046781;28;20052;-57
2023/04/22 08:38:35;;;;;;;12.15;8.77;;;;;;;14.84;100.00;100735.78;5046881;28;20399;-59
2023/04/22 08:41:00;;;;;;;11.20;9.35;;;;;;;14.64;100.00;100729.75;5047340;28;20049;-58
2023/04/22 08:43:26;;;;;;;12.25;9.27;;;;;;;14.39;100.00;100723.06;5013808;28;20099;-58
2023/04/22 08:45:51;;;;;;;10.48;9.38;;;;;;;14.50;100.00;100718.97;5038600;28;20036;-57
2023/04/22 08:48:18;;;;;;;14.68;9.77;;;;;;;14.37;100.00;100713.47;5046450;28;20067;-58
2023/04/22 08:50:46;;;;;;;13.63;9.40;;;;;;;14.69;100.00;100708.25;5047021;28;20108;-57
2023/04/22 08:53:11;;;;;;;11.18;9.48;;;;;;;14.74;100.00;100711.53;5034489;28;20040;-58
2023/04/22 08:55:37;;;;;;;14.00;9.32;;;;;;;14.96;100.00;100712.22;5038114;28;20104;-62
2023/04/22 08:58:04;;;;;;;10.57;9.07;;;;;;;14.85;100.00;100703.03;5023048;28;20025;-58
2023/04/22 09:00:31;;;;;;;11.35;10.15;;;;;;;14.74;100.00;100700.91;5047758;28;20456;-57
2023/04/22 09:02:57;;;;;;;12.35;10.00;;;;;;;14.90;100.00;100687.72;5046583;28;20029;-59
2023/04/22 09:05:23;;;;;;;11.52;9.90;;;;;;;14.90;100.00;100679.75;5028507;28;20025;-56
2023/04/22 09:07:49;;;;;;;11.93;10.57;;;;;;;15.04;100.00;100678.13;5033503;28;20032;-57
2023/04/22 09:10:14;;;;;;;10.50;8.48;;;;;;;15.07;100.00;100677.09;5028320;28;20061;-57
2023/04/22 09:12:40;;;;;;;7.90;7.20;;;;;;;15.33;100.00;100680.97;5032055;28;20128;-59
2023/04/22 09:15:06;;;;;;;8.80;6.90;;;;;;;15.57;100.00;100666.38;5049388;28;20041;-57
2023/04/22 09:17:33;;;;;;;9.38;8.27;;;;;;;15.73;100.00;100661.88;5022442;28;20103;-59
2023/04/22 09:20:00;;;;;;;10.10;8.77;;;;;;;16.02;100.00;100650.50;5035476;28;20075;-58
2023/04/22 09:22:35;;;;;;;12.45;9.80;;;;;;;16.10;100.00;100642.06;5036672;28;20095;-58
2023/04/22 09:25:03;;;;;;;9.90;8.60;;;;;;;16.06;100.00;100641.38;5043285;28;20030;-59
2023/04/22 09:27:28;;;;;;;9.63;8.30;;;;;;;15.97;100.00;100634.81;5033302;28;20029;-57
2023/04/22 09:29:54;;;;;;;12.13;9.63;;;;;;;16.02;100.00;100634.56;5034207;28;20443;-60
2023/04/22 09:32:19;;;;;;;11.82;10.63;;;;;;;16.13;100.00;100632.09;5039837;28;20787;-58
2023/04/22 09:34:52;;;;;;;15.80;10.73;;;;;;;15.23;100.00;100638.16;5036566;28;20017;-60
2023/04/22 09:37:24;;;;;;;12.50;10.55;;;;;;;15.19;100.00;100656.97;5041160;28;20021;-56
2023/04/22 09:39:50;;;;;;;11.40;9.82;;;;;;;15.50;100.00;100653.44;5038792;28;20022;-55
2023/04/22 09:42:16;;;;;;;14.57;10.75;;;;;;;15.59;100.00;100659.19;5029271;28;20090;-58
2023/04/22 09:44:44;;;;;;;14.00;9.32;;;;;;;15.57;100.00;100666.38;5020735;28;20499;-57
2023/04/22 09:47:10;;;;;;;13.10;9.70;;;;;;;15.54;100.00;100672.72;5025598;28;20083;-57
2023/04/22 09:49:37;;;;;;;10.55;9.45;;;;;;;15.77;100.00;100673.16;5030542;28;20025;-57
2023/04/22 09:52:03;;;;;;;11.45;9.77;;;;;;;15.95;100.00;100684.50;5044868;28;20029;-56
2023/04/22 09:54:28;;;;;;;10.30;9.27;;;;;;;16.31;100.00;100682.41;5046245;28;20079;-58
2023/04/22 09:56:54;;;;;;;11.52;9.80;;;;;;;16.51;100.00;100683.88;5046022;28;20126;-57
2023/04/22 09:59:20;;;;;;;11.82;10.23;;;;;;;16.40;100.00;100686.31;5038651;28;20072;-57
2023/04/22 10:01:46;;;;;;;12.25;10.77;;;;;;;16.42;100.00;100695.94;5026192;28;20513;-60
2023/04/22 10:04:13;;;;;;;13.23;10.20;;;;;;;16.65;100.00;100706.94;5027949;28;20025;-57
2023/04/22 10:06:39;;;;;;;11.95;10.65;;;;;;;16.48;100.00;100704.47;5046253;28;20514;-60
2023/04/22 10:09:05;;;;;;;14.73;9.98;;;;;;;17.01;100.00;100703.88;5039523;28;20036;-60
2023/04/22 10:11:31;;;;;;;12.32;10.65;;;;;;;16.97;98.62;100697.91;5045259;28;20479;-58
2023/04/22 10:13:59;;;;;;;16.58;10.85;;;;;;;17.26;98.23;100689.03;5043625;28;20029;-53
2023/04/22 10:16:25;;;;;;;11.60;10.05;;;;;;;17.08;99.18;100686.59;5037919;28;20067;-57
2023/04/22 10:18:53;;;;;;;12.43;10.05;;;;;;;17.12;96.34;100687.25;5022492;28;20029;-58
2023/04/22 10:21:20;;;;;;;14.73;10.05;;;;;;;16.73;99.13;100687.84;5018508;28;20896;-58
2023/04/22 10:23:47;;;;;;;11.25;9.40;;;;;;;16.87;98.94;100686.13;5015358;28;20472;-61
2023/04/22 10:26:12;;;;;;;11.05;9.95;;;;;;;16.83;98.07;100693.47;5033190;28;20033;-56
2023/04/22 10:28:43;;;;;;;11.30;10.13;;;;;;;17.00;96.18;100680.88;5028051;28;20025;-62
2023/04/22 10:31:21;;;;;;;10.77;9.52;;;;;;;16.48;97.67;100693.84;5043683;28;20025;-56
2023/04/22 10:33:46;;;;;;;13.02;11.32;;;;;;;16.42;100.00;100697.72;5027427;28;20143;-56
2023/04/22 10:36:16;;;;;;;16.33;10.38;;;;;;;16.52;98.82;100705.97;5044591;28;20120;-57
2023/04/22 10:38:53;;;;;;;11.52;10.38;;;;;;;16.25;100.00;100707.56;5045647;28;20037;-62
2023/04/22 10:41:23;;;;;;;12.13;10.32;;;;;;;15.94;100.00;100712.03;5037761;28;20048;-59
2023/04/22 10:43:57;;;;;;;11.65;10.52;;;;;;;15.86;100.00;100704.50;5026589;28;20132;-57
2023/04/22 10:46:38;;;;;;;12.25;10.77;;;;;;;15.90;100.00;100699.88;5026115;28;20715;-56
2023/04/22 10:49:12;;;;;;;12.27;10.30;;;;;;;15.91;100.00;100702.44;5038632;28;20039;-58
2023/04/22 10:51:41;;;;;;;10.40;9.30;;;;;;;15.83;100.00;100699.38;5035659;28;20028;-61
2023/04/22 10:54:07;;;;;;;12.88;10.15;;;;;;;15.74;100.00;100703.41;5035082;28;20033;-57
2023/04/22 10:56:33;;;;;;;10.27;9.10;;;;;;;15.76;100.00;100700.66;5014613;28;20025;-54
2023/04/22 10:58:58;;;;;;;11.27;9.10;;;;;;;15.66;100.00;100700.38;5033019;28;20200;-55
2023/04/22 11:01:26;;;;;;;10.43;9.25;;;;;;;15.41;100.00;100699.97;5031947;28;20131;-59
2023/04/22 11:03:52;;;;;;;11.50;8.57;;;;;;;15.31;100.00;100701.41;5032150;28;20029;-65